createdAt,value
2017-08-19T00:00:05.670Z,19.64
2017-08-19T00:00:46.247Z,19.64
2017-08-19T00:01:26.807Z,19.62
2017-08-19T00:02:07.433Z,19.73
2017-08-19T00:02:48.009Z,19.67
2017-08-19T00:03:28.607Z,19.66
2017-08-19T00:04:09.204Z,19.67
2017-08-19T00:04:49.779Z,19.59
2017-08-19T00:05:30.339Z,19.64
2017-08-19T00:06:10.937Z,19.63
2017-08-19T00:06:51.541Z,19.59
2017-08-19T00:07:32.134Z,19.59
2017-08-19T00:08:12.698Z,19.58
2017-08-19T00:08:53.298Z,19.66
2017-08-19T00:09:33.880Z,19.62
2017-08-19T00:10:14.464Z,19.54
2017-08-19T00:10:55.047Z,19.56
2017-08-19T00:11:35.636Z,19.69
2017-08-19T00:12:16.211Z,19.56
2017-08-19T00:12:56.824Z,19.54
2017-08-19T00:13:37.376Z,19.63
2017-08-19T00:14:17.947Z,19.55
2017-08-19T00:14:58.527Z,19.56
2017-08-19T00:15:39.102Z,19.55
2017-08-19T00:16:19.787Z,19.56
2017-08-19T00:17:00.376Z,19.59
2017-08-19T00:17:40.931Z,19.59
2017-08-19T00:18:21.508Z,19.52
2017-08-19T00:19:02.122Z,19.49
2017-08-19T00:19:42.694Z,19.51
2017-08-19T00:20:23.269Z,19.47
2017-08-19T00:21:03.852Z,19.48
2017-08-19T00:21:44.435Z,19.51
2017-08-19T00:22:25.018Z,19.54
2017-08-19T00:23:05.588Z,19.49
2017-08-19T00:23:46.175Z,19.55
2017-08-19T00:24:26.741Z,19.41
2017-08-19T00:25:07.318Z,19.48
2017-08-19T00:25:47.892Z,19.44
2017-08-19T00:26:28.482Z,19.39
2017-08-19T00:27:09.033Z,19.49
2017-08-19T00:27:49.604Z,19.51
2017-08-19T00:28:30.177Z,19.41
2017-08-19T00:29:10.763Z,19.4
2017-08-19T00:29:51.344Z,19.41
2017-08-19T00:30:31.941Z,19.39
2017-08-19T00:31:12.513Z,19.4
2017-08-19T00:31:53.069Z,19.41
2017-08-19T00:32:33.679Z,19.44
2017-08-19T00:33:14.252Z,19.34
2017-08-19T00:33:54.836Z,19.37
2017-08-19T00:34:35.405Z,19.34
2017-08-19T00:35:15.982Z,19.39
2017-08-19T00:35:56.573Z,19.33
2017-08-19T00:36:37.178Z,19.33
2017-08-19T00:37:17.744Z,19.31
2017-08-19T00:37:58.306Z,19.34
2017-08-19T00:38:38.881Z,19.26
2017-08-19T00:39:19.458Z,19.34
2017-08-19T00:40:00.041Z,19.33
2017-08-19T00:40:40.614Z,19.36
2017-08-19T00:41:21.177Z,19.34
2017-08-19T00:42:01.782Z,19.33
2017-08-19T00:42:42.349Z,19.37
2017-08-19T00:43:22.936Z,19.4
2017-08-19T00:44:03.512Z,19.36
2017-08-19T00:44:44.078Z,19.3
2017-08-19T00:45:24.668Z,19.4
2017-08-19T00:46:05.244Z,19.36
2017-08-19T00:46:45.833Z,19.4
2017-08-19T00:47:26.421Z,19.36
2017-08-19T00:48:06.985Z,19.3
2017-08-19T00:48:47.578Z,19.34
2017-08-19T00:49:28.133Z,19.34
2017-08-19T00:50:08.695Z,19.3
2017-08-19T00:50:49.262Z,19.37
2017-08-19T00:51:29.840Z,19.31
2017-08-19T00:52:10.440Z,19.24
2017-08-19T00:52:50.986Z,19.33
2017-08-19T00:53:31.544Z,19.31
2017-08-19T00:54:12.116Z,19.34
2017-08-19T00:54:52.683Z,19.26
2017-08-19T00:55:33.268Z,19.29
2017-08-19T00:56:13.841Z,19.36
2017-08-19T00:56:54.414Z,19.3
2017-08-19T00:57:34.982Z,19.33
2017-08-19T00:58:15.539Z,19.31
2017-08-19T00:58:56.122Z,19.29
2017-08-19T00:59:36.690Z,19.29
2017-08-19T01:00:17.269Z,19.26
2017-08-19T01:00:57.839Z,19.34
2017-08-19T01:01:38.414Z,19.27
2017-08-19T01:02:19.015Z,19.22
2017-08-19T01:02:59.567Z,19.26
2017-08-19T01:03:40.130Z,19.31
2017-08-19T01:04:20.694Z,19.31
2017-08-19T01:05:01.269Z,19.31
2017-08-19T01:05:41.875Z,19.27
2017-08-19T01:06:22.445Z,19.33
2017-08-19T01:07:03.022Z,19.26
2017-08-19T01:07:43.607Z,19.27
2017-08-19T01:08:24.189Z,19.29
2017-08-19T01:09:04.764Z,19.29
2017-08-19T01:09:45.351Z,19.26
2017-08-19T01:10:25.919Z,19.31
2017-08-19T01:11:06.505Z,19.22
2017-08-19T01:11:47.060Z,19.29
2017-08-19T01:12:27.631Z,19.29
2017-08-19T01:13:08.245Z,19.27
2017-08-19T01:13:48.813Z,19.22
2017-08-19T01:14:29.396Z,19.18
2017-08-19T01:15:09.972Z,19.22
2017-08-19T01:15:50.547Z,19.3
2017-08-19T01:16:31.119Z,19.24
2017-08-19T01:17:11.693Z,19.14
2017-08-19T01:17:52.281Z,19.26
2017-08-19T01:18:32.855Z,19.21
2017-08-19T01:19:13.420Z,19.19
2017-08-19T01:19:54.007Z,19.22
2017-08-19T01:20:34.594Z,19.24
2017-08-19T01:21:15.168Z,19.21
2017-08-19T01:21:55.743Z,19.18
2017-08-19T01:22:36.313Z,19.21
2017-08-19T01:23:16.892Z,19.22
2017-08-19T01:23:57.471Z,19.21
2017-08-19T01:24:38.057Z,19.21
2017-08-19T01:25:18.657Z,19.22
2017-08-19T01:25:59.216Z,19.21
2017-08-19T01:26:39.782Z,19.21
2017-08-19T01:27:20.357Z,19.18
2017-08-19T01:28:00.940Z,19.24
2017-08-19T01:28:41.494Z,19.18
2017-08-19T01:29:22.076Z,19.19
2017-08-19T01:30:02.627Z,19.22
2017-08-19T01:30:43.206Z,19.22
2017-08-19T01:31:23.760Z,19.15
2017-08-19T01:32:04.371Z,19.21
2017-08-19T01:32:44.974Z,19.15
2017-08-19T01:33:25.548Z,19.16
2017-08-19T01:34:06.126Z,19.21
2017-08-19T01:34:46.712Z,19.18
2017-08-19T01:35:27.306Z,19.18
2017-08-19T01:36:07.886Z,19.12
2017-08-19T01:36:48.457Z,19.14
2017-08-19T01:37:29.023Z,19.16
2017-08-19T01:38:09.593Z,19.16
2017-08-19T01:38:50.155Z,19.16
2017-08-19T01:39:30.712Z,19.14
2017-08-19T01:40:11.290Z,19.14
2017-08-19T01:40:51.864Z,19.16
2017-08-19T01:41:32.434Z,19.18
2017-08-19T01:42:13.007Z,19.09
2017-08-19T01:42:53.595Z,19.15
2017-08-19T01:43:34.161Z,19.15
2017-08-19T01:44:14.782Z,19.15
2017-08-19T01:44:55.348Z,19.12
2017-08-19T01:45:35.933Z,19.11
2017-08-19T01:46:16.535Z,19.12
2017-08-19T01:46:57.121Z,19
2017-08-19T01:47:37.711Z,19.07
2017-08-19T01:48:18.312Z,19.09
2017-08-19T01:48:58.872Z,19.09
2017-08-19T01:49:39.439Z,19.09
2017-08-19T01:50:20.020Z,19.08
2017-08-19T01:51:00.605Z,19.07
2017-08-19T01:51:41.182Z,19.09
2017-08-19T01:52:21.821Z,19.09
2017-08-19T01:53:02.418Z,19.04
2017-08-19T01:53:43.004Z,19.12
2017-08-19T01:54:23.580Z,19.07
2017-08-19T01:55:04.158Z,19.02
2017-08-19T01:55:44.742Z,19.02
2017-08-19T01:56:25.323Z,18.96
2017-08-19T01:57:05.892Z,19.02
2017-08-19T01:57:46.508Z,19.04
2017-08-19T01:58:27.091Z,19.02
2017-08-19T01:59:07.655Z,19.04
2017-08-19T01:59:48.241Z,19.02
2017-08-19T02:00:28.819Z,19.02
2017-08-19T02:01:09.398Z,19.09
2017-08-19T02:01:50.016Z,18.9
2017-08-19T02:02:30.595Z,18.96
2017-08-19T02:03:11.157Z,18.98
2017-08-19T02:03:51.742Z,18.96
2017-08-19T02:04:32.313Z,18.98
2017-08-19T02:05:12.885Z,18.93
2017-08-19T02:05:53.449Z,18.89
2017-08-19T02:06:34.038Z,18.93
2017-08-19T02:07:14.633Z,18.92
2017-08-19T02:07:55.204Z,18.93
2017-08-19T02:08:35.778Z,19
2017-08-19T02:09:16.399Z,18.93
2017-08-19T02:09:57.076Z,18.95
2017-08-19T02:10:37.696Z,18.92
2017-08-19T02:11:18.292Z,18.89
2017-08-19T02:11:58.894Z,18.92
2017-08-19T02:12:39.488Z,18.93
2017-08-19T02:13:20.102Z,18.89
2017-08-19T02:14:00.711Z,18.86
2017-08-19T02:14:41.285Z,18.92
2017-08-19T02:15:21.852Z,18.81
2017-08-19T02:16:02.447Z,18.84
2017-08-19T02:16:43.054Z,18.89
2017-08-19T02:17:23.629Z,18.84
2017-08-19T02:18:04.200Z,18.9
2017-08-19T02:18:44.784Z,18.86
2017-08-19T02:19:25.365Z,18.88
2017-08-19T02:20:05.952Z,18.74
2017-08-19T02:20:46.520Z,18.8
2017-08-19T02:21:27.118Z,18.8
2017-08-19T02:22:07.680Z,18.8
2017-08-19T02:22:48.259Z,18.75
2017-08-19T02:23:28.834Z,18.81
2017-08-19T02:24:09.426Z,18.74
2017-08-19T02:24:50.012Z,18.73
2017-08-19T02:25:30.609Z,18.8
2017-08-19T02:26:11.215Z,18.73
2017-08-19T02:26:51.825Z,18.75
2017-08-19T02:27:32.410Z,18.8
2017-08-19T02:28:12.975Z,18.77
2017-08-19T02:28:53.560Z,18.8
2017-08-19T02:29:34.136Z,18.7
2017-08-19T02:30:14.719Z,18.73
2017-08-19T02:30:55.303Z,18.7
2017-08-19T02:31:35.894Z,18.75
2017-08-19T02:32:16.454Z,18.7
2017-08-19T02:32:57.018Z,18.74
2017-08-19T02:33:37.593Z,18.77
2017-08-19T02:34:18.165Z,18.71
2017-08-19T02:34:58.747Z,18.73
2017-08-19T02:35:39.332Z,18.75
2017-08-19T02:36:19.936Z,18.7
2017-08-19T02:37:00.539Z,18.71
2017-08-19T02:37:41.153Z,18.77
2017-08-19T02:38:21.744Z,18.74
2017-08-19T02:39:02.369Z,18.73
2017-08-19T02:39:42.953Z,18.71
2017-08-19T02:40:23.510Z,18.71
2017-08-19T02:41:04.080Z,18.65
2017-08-19T02:41:44.665Z,18.65
2017-08-19T02:42:25.246Z,18.55
2017-08-19T02:43:05.833Z,18.65
2017-08-19T02:43:46.422Z,18.59
2017-08-19T02:44:27.026Z,18.6
2017-08-19T02:45:07.585Z,18.6
2017-08-19T02:45:48.175Z,18.58
2017-08-19T02:46:28.758Z,18.59
2017-08-19T02:47:09.340Z,18.53
2017-08-19T02:47:49.921Z,18.52
2017-08-19T02:48:30.502Z,18.58
2017-08-19T02:49:11.056Z,18.55
2017-08-19T02:49:51.644Z,18.53
2017-08-19T02:50:32.221Z,18.55
2017-08-19T02:51:12.795Z,18.47
2017-08-19T02:51:53.359Z,18.53
2017-08-19T02:52:33.963Z,18.56
2017-08-19T02:53:14.548Z,18.53
2017-08-19T02:53:55.129Z,18.53
2017-08-19T02:54:35.710Z,18.55
2017-08-19T02:55:16.326Z,18.6
2017-08-19T02:55:56.910Z,18.55
2017-08-19T02:56:37.490Z,18.52
2017-08-19T02:57:18.072Z,18.59
2017-08-19T02:57:58.663Z,18.55
2017-08-19T02:58:39.242Z,18.6
2017-08-19T02:59:19.824Z,18.58
2017-08-19T03:00:00.396Z,18.55
2017-08-19T03:00:41.017Z,18.55
2017-08-19T03:01:21.530Z,18.53
2017-08-19T03:02:02.094Z,18.53
2017-08-19T03:02:42.677Z,18.53
2017-08-19T03:03:23.300Z,18.44
2017-08-19T03:04:03.852Z,18.44
2017-08-19T03:04:44.444Z,18.45
2017-08-19T03:05:25.008Z,18.47
2017-08-19T03:06:05.573Z,18.49
2017-08-19T03:06:46.153Z,18.44
2017-08-19T03:07:26.713Z,18.43
2017-08-19T03:08:07.294Z,18.45
2017-08-19T03:08:47.896Z,18.37
2017-08-19T03:09:28.472Z,18.47
2017-08-19T03:10:09.042Z,18.38
2017-08-19T03:10:49.602Z,18.49
2017-08-19T03:11:30.223Z,18.5
2017-08-19T03:12:10.781Z,18.43
2017-08-19T03:12:51.347Z,18.53
2017-08-19T03:13:31.932Z,18.43
2017-08-19T03:14:12.508Z,18.5
2017-08-19T03:14:53.085Z,18.4
2017-08-19T03:15:33.650Z,18.47
2017-08-19T03:16:14.237Z,18.47
2017-08-19T03:16:54.818Z,18.45
2017-08-19T03:17:35.380Z,18.38
2017-08-19T03:18:15.940Z,18.44
2017-08-19T03:18:56.504Z,18.45
2017-08-19T03:19:37.102Z,18.45
2017-08-19T03:20:17.685Z,18.47
2017-08-19T03:20:58.285Z,18.47
2017-08-19T03:21:38.865Z,18.47
2017-08-19T03:22:19.436Z,18.43
2017-08-19T03:23:00.013Z,18.43
2017-08-19T03:23:40.585Z,18.45
2017-08-19T03:24:21.158Z,18.45
2017-08-19T03:25:01.714Z,18.44
2017-08-19T03:25:42.282Z,18.41
2017-08-19T03:26:22.845Z,18.5
2017-08-19T03:27:03.421Z,18.47
2017-08-19T03:27:43.986Z,18.5
2017-08-19T03:28:24.552Z,18.43
2017-08-19T03:29:05.125Z,18.45
2017-08-19T03:29:45.708Z,18.52
2017-08-19T03:30:26.279Z,18.49
2017-08-19T03:31:06.845Z,18.45
2017-08-19T03:31:47.469Z,18.4
2017-08-19T03:32:28.044Z,18.44
2017-08-19T03:33:08.613Z,18.41
2017-08-19T03:33:49.177Z,18.49
2017-08-19T03:34:29.756Z,18.47
2017-08-19T03:35:10.336Z,18.45
2017-08-19T03:35:50.930Z,18.41
2017-08-19T03:36:31.509Z,18.44
2017-08-19T03:37:12.078Z,18.47
2017-08-19T03:37:52.659Z,18.4
2017-08-19T03:38:33.223Z,18.43
2017-08-19T03:39:13.815Z,18.44
2017-08-19T03:39:54.394Z,18.4
2017-08-19T03:40:34.978Z,18.41
2017-08-19T03:41:15.549Z,18.4
2017-08-19T03:41:56.135Z,18.45
2017-08-19T03:42:36.691Z,18.45
2017-08-19T03:43:17.276Z,18.43
2017-08-19T03:43:57.855Z,18.44
2017-08-19T03:44:38.450Z,18.53
2017-08-19T03:45:19.021Z,18.47
2017-08-19T03:45:59.582Z,18.43
2017-08-19T03:46:40.159Z,18.45
2017-08-19T03:47:20.733Z,18.45
2017-08-19T03:48:01.295Z,18.44
2017-08-19T03:48:41.869Z,18.5
2017-08-19T03:49:22.434Z,18.43
2017-08-19T03:50:02.998Z,18.4
2017-08-19T03:50:43.591Z,18.45
2017-08-19T03:51:24.160Z,18.44
2017-08-19T03:52:04.725Z,18.47
2017-08-19T03:52:45.294Z,18.38
2017-08-19T03:53:25.853Z,18.41
2017-08-19T03:54:06.426Z,18.41
2017-08-19T03:54:46.996Z,18.43
2017-08-19T03:55:27.562Z,18.45
2017-08-19T03:56:08.148Z,18.37
2017-08-19T03:56:48.728Z,18.38
2017-08-19T03:57:29.357Z,18.43
2017-08-19T03:58:09.917Z,18.37
2017-08-19T03:58:50.499Z,18.31
2017-08-19T03:59:31.075Z,18.44
2017-08-19T04:00:11.653Z,18.35
2017-08-19T04:00:52.239Z,18.38
2017-08-19T04:01:32.831Z,18.4
2017-08-19T04:02:13.391Z,18.47
2017-08-19T04:02:53.963Z,18.43
2017-08-19T04:03:34.532Z,18.45
2017-08-19T04:04:15.138Z,18.34
2017-08-19T04:04:55.717Z,18.45
2017-08-19T04:05:36.300Z,18.45
2017-08-19T04:06:16.859Z,18.45
2017-08-19T04:06:57.419Z,18.44
2017-08-19T04:07:38.014Z,18.4
2017-08-19T04:08:18.582Z,18.33
2017-08-19T04:08:59.153Z,18.4
2017-08-19T04:09:39.750Z,18.44
2017-08-19T04:10:20.350Z,18.38
2017-08-19T04:11:00.918Z,18.4
2017-08-19T04:11:41.499Z,18.38
2017-08-19T04:12:22.062Z,18.4
2017-08-19T04:13:02.629Z,18.44
2017-08-19T04:13:43.201Z,18.45
2017-08-19T04:14:23.784Z,18.41
2017-08-19T04:15:04.344Z,18.43
2017-08-19T04:15:44.936Z,18.4
2017-08-19T04:16:25.510Z,18.49
2017-08-19T04:17:06.081Z,18.4
2017-08-19T04:17:46.644Z,18.47
2017-08-19T04:18:27.246Z,18.45
2017-08-19T04:19:07.840Z,18.44
2017-08-19T04:19:48.438Z,18.52
2017-08-19T04:20:28.999Z,18.41
2017-08-19T04:21:09.568Z,18.38
2017-08-19T04:21:50.196Z,18.44
2017-08-19T04:22:30.772Z,18.49
2017-08-19T04:23:11.378Z,18.4
2017-08-19T04:23:51.957Z,18.45
2017-08-19T04:24:32.532Z,18.43
2017-08-19T04:25:13.102Z,18.4
2017-08-19T04:25:53.679Z,18.4
2017-08-19T04:26:34.263Z,18.43
2017-08-19T04:27:14.809Z,18.38
2017-08-19T04:27:55.385Z,18.38
2017-08-19T04:28:35.975Z,18.47
2017-08-19T04:29:16.534Z,18.35
2017-08-19T04:29:57.111Z,18.45
2017-08-19T04:30:37.695Z,18.45
2017-08-19T04:31:18.264Z,18.4
2017-08-19T04:31:58.847Z,18.49
2017-08-19T04:32:39.424Z,18.4
2017-08-19T04:33:19.992Z,18.47
2017-08-19T04:34:00.574Z,18.44
2017-08-19T04:34:41.145Z,18.41
2017-08-19T04:35:21.704Z,18.44
2017-08-19T04:36:02.275Z,18.43
2017-08-19T04:36:42.835Z,18.47
2017-08-19T04:37:23.409Z,18.43
2017-08-19T04:38:04.003Z,18.45
2017-08-19T04:38:44.560Z,18.44
2017-08-19T04:39:25.137Z,18.43
2017-08-19T04:40:05.699Z,18.44
2017-08-19T04:40:46.284Z,18.44
2017-08-19T04:41:26.873Z,18.41
2017-08-19T04:42:07.443Z,18.4
2017-08-19T04:42:48.007Z,18.44
2017-08-19T04:43:28.574Z,18.41
2017-08-19T04:44:09.148Z,18.41
2017-08-19T04:44:49.717Z,18.43
2017-08-19T04:45:30.303Z,18.53
2017-08-19T04:46:10.888Z,18.45
2017-08-19T04:46:51.458Z,18.49
2017-08-19T04:47:32.038Z,18.44
2017-08-19T04:48:12.610Z,18.43
2017-08-19T04:48:53.178Z,18.44
2017-08-19T04:49:33.752Z,18.56
2017-08-19T04:50:14.326Z,18.4
2017-08-19T04:50:54.902Z,18.47
2017-08-19T04:51:35.466Z,18.47
2017-08-19T04:52:16.050Z,18.43
2017-08-19T04:52:56.625Z,18.4
2017-08-19T04:53:37.188Z,18.53
2017-08-19T04:54:17.756Z,18.43
2017-08-19T04:54:58.323Z,18.45
2017-08-19T04:55:38.883Z,18.4
2017-08-19T04:56:19.447Z,18.45
2017-08-19T04:57:00.038Z,18.47
2017-08-19T04:57:40.615Z,18.47
2017-08-19T04:58:21.175Z,18.47
2017-08-19T04:59:01.749Z,18.59
2017-08-19T04:59:42.323Z,18.47
2017-08-19T05:00:22.900Z,18.5
2017-08-19T05:01:03.600Z,18.47
2017-08-19T05:01:44.179Z,18.52
2017-08-19T05:02:24.788Z,18.49
2017-08-19T05:03:05.376Z,18.47
2017-08-19T05:03:45.945Z,18.53
2017-08-19T05:04:26.512Z,18.53
2017-08-19T05:05:07.086Z,18.52
2017-08-19T05:05:47.660Z,18.59
2017-08-19T05:06:28.246Z,18.59
2017-08-19T05:07:08.815Z,18.49
2017-08-19T05:07:49.384Z,18.5
2017-08-19T05:08:29.958Z,18.52
2017-08-19T05:09:10.528Z,18.55
2017-08-19T05:09:51.110Z,18.62
2017-08-19T05:10:31.690Z,18.6
2017-08-19T05:11:12.298Z,18.58
2017-08-19T05:11:52.872Z,18.59
2017-08-19T05:12:33.443Z,18.52
2017-08-19T05:13:14.023Z,18.59
2017-08-19T05:13:54.608Z,18.53
2017-08-19T05:14:35.178Z,18.58
2017-08-19T05:15:15.759Z,18.59
2017-08-19T05:15:56.346Z,18.55
2017-08-19T05:16:36.937Z,18.59
2017-08-19T05:17:17.501Z,18.58
2017-08-19T05:17:58.100Z,18.55
2017-08-19T05:18:38.694Z,18.53
2017-08-19T05:19:19.267Z,18.55
2017-08-19T05:19:59.854Z,18.58
2017-08-19T05:20:40.424Z,18.55
2017-08-19T05:21:20.991Z,18.53
2017-08-19T05:22:01.565Z,18.55
2017-08-19T05:22:42.127Z,18.56
2017-08-19T05:23:22.708Z,18.58
2017-08-19T05:24:03.297Z,18.55
2017-08-19T05:24:43.870Z,18.58
2017-08-19T05:25:24.439Z,18.56
2017-08-19T05:26:05.013Z,18.58
2017-08-19T05:26:45.589Z,18.55
2017-08-19T05:27:26.149Z,18.53
2017-08-19T05:28:06.721Z,18.53
2017-08-19T05:28:47.318Z,18.58
2017-08-19T05:29:27.891Z,18.47
2017-08-19T05:30:08.461Z,18.49
2017-08-19T05:30:49.039Z,18.52
2017-08-19T05:31:29.614Z,18.52
2017-08-19T05:32:10.187Z,18.53
2017-08-19T05:32:50.761Z,18.47
2017-08-19T05:33:31.319Z,18.47
2017-08-19T05:34:11.885Z,18.47
2017-08-19T05:34:52.445Z,18.5
2017-08-19T05:35:33.057Z,18.53
2017-08-19T05:36:13.652Z,18.47
2017-08-19T05:36:54.219Z,18.43
2017-08-19T05:37:34.808Z,18.47
2017-08-19T05:38:15.396Z,18.45
2017-08-19T05:38:55.985Z,18.44
2017-08-19T05:39:36.566Z,18.4
2017-08-19T05:40:17.132Z,18.47
2017-08-19T05:40:57.735Z,18.4
2017-08-19T05:41:38.354Z,18.45
2017-08-19T05:42:18.918Z,18.49
2017-08-19T05:42:59.491Z,18.45
2017-08-19T05:43:40.056Z,18.47
2017-08-19T05:44:20.632Z,18.43
2017-08-19T05:45:01.232Z,18.44
2017-08-19T05:45:41.796Z,18.47
2017-08-19T05:46:22.379Z,18.44
2017-08-19T05:47:02.954Z,18.5
2017-08-19T05:47:43.552Z,18.47
2017-08-19T05:48:24.128Z,18.44
2017-08-19T05:49:04.683Z,18.49
2017-08-19T05:49:45.264Z,18.44
2017-08-19T05:50:25.842Z,18.44
2017-08-19T05:51:06.434Z,18.45
2017-08-19T05:51:47.015Z,18.52
2017-08-19T05:52:27.604Z,18.52
2017-08-19T05:53:08.175Z,18.53
2017-08-19T05:53:48.742Z,18.49
2017-08-19T05:54:29.317Z,18.6
2017-08-19T05:55:09.895Z,18.59
2017-08-19T05:55:50.468Z,18.56
2017-08-19T05:56:31.038Z,18.63
2017-08-19T05:57:11.612Z,18.63
2017-08-19T05:57:52.215Z,18.62
2017-08-19T05:58:32.790Z,18.65
2017-08-19T05:59:13.361Z,18.7
2017-08-19T05:59:53.938Z,18.66
2017-08-19T06:00:34.501Z,18.71
2017-08-19T06:01:15.081Z,18.65
2017-08-19T06:01:55.684Z,18.63
2017-08-19T06:02:36.254Z,18.63
2017-08-19T06:03:16.840Z,18.7
2017-08-19T06:03:57.439Z,18.73
2017-08-19T06:04:38.009Z,18.7
2017-08-19T06:05:18.603Z,18.73
2017-08-19T06:05:59.182Z,18.63
2017-08-19T06:06:39.769Z,18.65
2017-08-19T06:07:20.420Z,18.73
2017-08-19T06:08:00.994Z,18.74
2017-08-19T06:08:41.628Z,18.71
2017-08-19T06:09:22.183Z,18.66
2017-08-19T06:10:02.755Z,18.74
2017-08-19T06:10:43.345Z,18.7
2017-08-19T06:11:23.918Z,18.77
2017-08-19T06:12:04.494Z,18.75
2017-08-19T06:12:45.073Z,18.68
2017-08-19T06:13:25.662Z,18.77
2017-08-19T06:14:06.224Z,18.68
2017-08-19T06:14:46.788Z,18.7
2017-08-19T06:15:27.358Z,18.8
2017-08-19T06:16:07.935Z,18.75
2017-08-19T06:16:48.500Z,18.75
2017-08-19T06:17:29.082Z,18.68
2017-08-19T06:18:09.648Z,18.7
2017-08-19T06:18:50.251Z,18.74
2017-08-19T06:19:30.816Z,18.77
2017-08-19T06:20:11.403Z,18.7
2017-08-19T06:20:51.992Z,18.75
2017-08-19T06:21:32.567Z,18.66
2017-08-19T06:22:13.265Z,18.63
2017-08-19T06:22:53.925Z,18.65
2017-08-19T06:23:34.505Z,18.63
2017-08-19T06:24:15.078Z,18.68
2017-08-19T06:24:55.642Z,18.65
2017-08-19T06:25:36.246Z,18.66
2017-08-19T06:26:16.783Z,18.65
2017-08-19T06:26:57.367Z,18.66
2017-08-19T06:27:37.936Z,18.63
2017-08-19T06:28:18.544Z,18.62
2017-08-19T06:28:59.116Z,18.66
2017-08-19T06:29:39.695Z,18.62
2017-08-19T06:30:20.277Z,18.55
2017-08-19T06:31:00.850Z,18.56
2017-08-19T06:31:41.431Z,18.56
2017-08-19T06:32:22.013Z,18.62
2017-08-19T06:33:02.590Z,18.63
2017-08-19T06:33:43.169Z,18.66
2017-08-19T06:34:23.757Z,18.62
2017-08-19T06:35:04.328Z,18.63
2017-08-19T06:35:44.941Z,18.63
2017-08-19T06:36:25.505Z,18.7
2017-08-19T06:37:06.080Z,18.66
2017-08-19T06:37:46.664Z,18.66
2017-08-19T06:38:27.245Z,18.65
2017-08-19T06:39:07.828Z,18.7
2017-08-19T06:39:48.410Z,18.68
2017-08-19T06:40:29.027Z,18.7
2017-08-19T06:41:09.608Z,18.66
2017-08-19T06:41:50.177Z,18.66
2017-08-19T06:42:30.797Z,18.55
2017-08-19T06:43:11.418Z,18.59
2017-08-19T06:43:52.012Z,18.68
2017-08-19T06:44:32.608Z,18.6
2017-08-19T06:45:13.209Z,18.55
2017-08-19T06:45:53.794Z,18.56
2017-08-19T06:46:34.406Z,18.66
2017-08-19T06:47:14.975Z,18.65
2017-08-19T06:47:55.541Z,18.65
2017-08-19T06:48:36.139Z,18.53
2017-08-19T06:49:16.713Z,18.66
2017-08-19T06:49:57.294Z,18.58
2017-08-19T06:50:37.854Z,18.55
2017-08-19T06:51:18.433Z,18.6
2017-08-19T06:51:58.984Z,18.65
2017-08-19T06:52:39.563Z,18.62
2017-08-19T06:53:20.139Z,18.66
2017-08-19T06:54:00.734Z,18.66
2017-08-19T06:54:41.347Z,18.71
2017-08-19T06:55:21.970Z,18.73
2017-08-19T06:56:02.561Z,18.65
2017-08-19T06:56:43.143Z,18.77
2017-08-19T06:57:23.827Z,18.71
2017-08-19T06:58:04.455Z,18.75
2017-08-19T06:58:45.041Z,18.78
2017-08-19T06:59:25.647Z,18.9
2017-08-19T07:00:06.303Z,18.88
2017-08-19T07:00:46.858Z,18.81
2017-08-19T07:01:27.463Z,18.9
2017-08-19T07:02:08.034Z,18.9
2017-08-19T07:02:48.623Z,18.86
2017-08-19T07:03:29.230Z,18.92
2017-08-19T07:04:09.803Z,18.99
2017-08-19T07:04:50.383Z,18.98
2017-08-19T07:05:30.984Z,18.96
2017-08-19T07:06:11.566Z,18.95
2017-08-19T07:06:52.147Z,18.93
2017-08-19T07:07:32.724Z,18.99
2017-08-19T07:08:13.291Z,19.04
2017-08-19T07:08:53.880Z,18.99
2017-08-19T07:09:34.480Z,19.07
2017-08-19T07:10:15.073Z,19.18
2017-08-19T07:10:55.657Z,19.15
2017-08-19T07:11:36.233Z,19.12
2017-08-19T07:12:16.798Z,19.16
2017-08-19T07:12:57.373Z,19.14
2017-08-19T07:13:37.928Z,19.14
2017-08-19T07:14:18.503Z,19.04
2017-08-19T07:14:59.073Z,19.09
2017-08-19T07:15:39.650Z,19.12
2017-08-19T07:16:20.239Z,19.15
2017-08-19T07:17:00.807Z,19.11
2017-08-19T07:17:41.380Z,19.07
2017-08-19T07:18:21.962Z,19.04
2017-08-19T07:19:02.570Z,18.9
2017-08-19T07:19:43.206Z,18.95
2017-08-19T07:20:23.847Z,18.92
2017-08-19T07:21:04.399Z,18.95
2017-08-19T07:21:44.992Z,18.83
2017-08-19T07:22:25.576Z,18.88
2017-08-19T07:23:06.157Z,18.84
2017-08-19T07:23:46.720Z,18.86
2017-08-19T07:24:27.329Z,18.89
2017-08-19T07:25:07.894Z,18.9
2017-08-19T07:25:48.481Z,18.9
2017-08-19T07:26:29.052Z,18.93
2017-08-19T07:27:09.620Z,18.93
2017-08-19T07:27:50.188Z,18.92
2017-08-19T07:28:30.754Z,18.92
2017-08-19T07:29:11.337Z,18.9
2017-08-19T07:29:51.919Z,18.84
2017-08-19T07:30:32.497Z,18.93
2017-08-19T07:31:13.073Z,18.9
2017-08-19T07:31:53.645Z,18.95
2017-08-19T07:32:34.233Z,18.99
2017-08-19T07:33:14.810Z,18.9
2017-08-19T07:33:55.455Z,18.98
2017-08-19T07:34:36.061Z,19.02
2017-08-19T07:35:16.645Z,19.16
2017-08-19T07:35:57.242Z,19.16
2017-08-19T07:36:37.821Z,19.22
2017-08-19T07:37:18.415Z,19.3
2017-08-19T07:37:59.046Z,19.26
2017-08-19T07:38:39.641Z,19.4
2017-08-19T07:39:20.209Z,19.34
2017-08-19T07:40:00.800Z,19.39
2017-08-19T07:40:41.376Z,19.41
2017-08-19T07:41:21.944Z,19.55
2017-08-19T07:42:02.526Z,19.51
2017-08-19T07:42:43.087Z,19.56
2017-08-19T07:43:23.682Z,19.59
2017-08-19T07:44:04.261Z,19.62
2017-08-19T07:44:44.843Z,19.66
2017-08-19T07:45:25.430Z,19.62
2017-08-19T07:46:06.035Z,19.63
2017-08-19T07:46:46.611Z,19.63
2017-08-19T07:47:27.185Z,19.66
2017-08-19T07:48:07.753Z,19.64
2017-08-19T07:48:48.328Z,19.55
2017-08-19T07:49:28.896Z,19.56
2017-08-19T07:50:09.485Z,19.58
2017-08-19T07:50:50.077Z,19.54
2017-08-19T07:51:30.666Z,19.66
2017-08-19T07:52:11.260Z,19.64
2017-08-19T07:52:51.834Z,19.74
2017-08-19T07:53:32.423Z,19.82
2017-08-19T07:54:12.995Z,19.89
2017-08-19T07:54:53.605Z,19.95
2017-08-19T07:55:34.199Z,20.02
2017-08-19T07:56:14.776Z,19.94
2017-08-19T07:56:55.349Z,20.03
2017-08-19T07:57:35.927Z,20.03
2017-08-19T07:58:16.505Z,20.07
2017-08-19T07:58:57.095Z,20.21
2017-08-19T07:59:37.676Z,20.21
2017-08-19T08:00:18.275Z,20.21
2017-08-19T08:00:58.865Z,20.13
2017-08-19T08:01:39.433Z,20.21
2017-08-19T08:02:20.034Z,20.18
2017-08-19T08:03:00.603Z,20.22
2017-08-19T08:03:41.176Z,20.06
2017-08-19T08:04:21.763Z,20.1
2017-08-19T08:05:02.334Z,20.18
2017-08-19T08:05:42.906Z,20.13
2017-08-19T08:06:23.477Z,20.14
2017-08-19T08:07:04.044Z,20.14
2017-08-19T08:07:44.631Z,20.13
2017-08-19T08:08:25.210Z,20.1
2017-08-19T08:09:05.779Z,20.13
2017-08-19T08:09:46.414Z,20.07
2017-08-19T08:10:27.007Z,19.96
2017-08-19T08:11:07.577Z,20.09
2017-08-19T08:11:48.197Z,20.03
2017-08-19T08:12:28.789Z,20.07
2017-08-19T08:13:09.362Z,20.09
2017-08-19T08:13:49.950Z,20.06
2017-08-19T08:14:30.516Z,20.1
2017-08-19T08:15:11.123Z,20.18
2017-08-19T08:15:51.770Z,20.16
2017-08-19T08:16:32.364Z,20.16
2017-08-19T08:17:12.954Z,20.34
2017-08-19T08:17:53.512Z,20.29
2017-08-19T08:18:34.089Z,20.39
2017-08-19T08:19:14.666Z,20.39
2017-08-19T08:19:55.299Z,20.56
2017-08-19T08:20:35.884Z,20.44
2017-08-19T08:21:16.462Z,20.39
2017-08-19T08:21:57.035Z,20.55
2017-08-19T08:22:37.623Z,20.51
2017-08-19T08:23:18.203Z,20.51
2017-08-19T08:23:58.816Z,20.58
2017-08-19T08:24:39.398Z,20.5
2017-08-19T08:25:19.971Z,20.48
2017-08-19T08:26:00.565Z,20.55
2017-08-19T08:26:41.162Z,20.52
2017-08-19T08:27:21.752Z,20.48
2017-08-19T08:28:02.325Z,20.5
2017-08-19T08:28:42.906Z,20.41
2017-08-19T08:29:23.482Z,20.41
2017-08-19T08:30:04.061Z,20.43
2017-08-19T08:30:44.639Z,20.44
2017-08-19T08:31:25.218Z,20.41
2017-08-19T08:32:05.797Z,20.41
2017-08-19T08:32:46.369Z,20.44
2017-08-19T08:33:26.955Z,20.36
2017-08-19T08:34:07.540Z,20.4
2017-08-19T08:34:48.137Z,20.39
2017-08-19T08:35:28.721Z,20.41
2017-08-19T08:36:09.302Z,20.41
2017-08-19T08:36:49.883Z,20.4
2017-08-19T08:37:30.477Z,20.34
2017-08-19T08:38:11.068Z,20.43
2017-08-19T08:38:51.634Z,20.47
2017-08-19T08:39:32.229Z,20.55
2017-08-19T08:40:12.804Z,20.52
2017-08-19T08:40:53.393Z,20.48
2017-08-19T08:41:33.973Z,20.41
2017-08-19T08:42:14.553Z,20.39
2017-08-19T08:42:55.121Z,20.39
2017-08-19T08:43:35.714Z,20.29
2017-08-19T08:44:16.286Z,20.32